Time;durP1;ratioP1;P1;durP2;ratioP2;P2;SDS_P1;SDS_P2;PMS_P1;PMS_P2;Temp;Humidity;BMP_temperature;BMP_pressure;BME280_temperature;BME280_humidity;BME280_pressure;Samples;Min_cycle;Max_cycle;Signal;HPM_P1;HPM_P2
2023/07/03 05:36:58;;;;;;;19.55;8.50;;;;;;;;;;6156785;23;20064;-83
2023/07/03 05:39:49;;;;;;;15.18;8.73;;;;;;;;;;6096681;23;20017;-82
2023/07/03 05:42:15;;;;;;;18.20;9.50;;;;;;;;;;6150288;23;20009;-81
2023/07/03 05:44:41;;;;;;;17.00;8.90;;;;;;;;;;6151687;23;20006;-82
2023/07/03 05:47:07;;;;;;;15.73;8.25;;;;;;;;;;6148937;23;20018;-82
2023/07/03 05:49:33;;;;;;;15.57;7.68;;;;;;;;;;6151776;23;20072;-83
2023/07/03 05:51:59;;;;;;;14.63;8.32;;;;;;;;;;6151983;23;20640;-82
2023/07/03 05:54:25;;;;;;;16.50;8.40;;;;;;;;;;6151620;23;20775;-82
2023/07/03 05:56:58;;;;;;;19.55;9.90;;;;;;;;;;6151922;23;20056;-84
2023/07/03 05:59:24;;;;;;;19.85;8.57;;;;;;;;;;6150797;23;20006;-82
2023/07/03 06:01:50;;;;;;;15.27;8.27;;;;;;;;;;6151972;23;20013;-81
2023/07/03 06:04:16;;;;;;;17.45;9.30;;;;;;;;;;6151608;23;20117;-81
2023/07/03 06:06:42;;;;;;;22.58;9.68;;;;;;;;;;6151359;23;20015;-87
2023/07/03 06:09:08;;;;;;;16.20;8.95;;;;;;;;;;6150061;23;20084;-85
2023/07/03 06:11:34;;;;;;;15.50;8.73;;;;;;;;;;6151594;23;20087;-84
2023/07/03 10:19:03;;;;;;;11.10;5.22;;;;;;;;;;6173967;23;20687;-86
2023/07/03 10:44:40;;;;;;;12.45;6.53;;;;;;;;;;6172812;23;20819;-83
2023/07/03 10:47:12;;;;;;;13.18;5.90;;;;;;;;;;6182899;23;20013;-83
2023/07/03 10:49:41;;;;;;;14.30;6.07;;;;;;;;;;6182528;23;20009;-85
2023/07/03 10:52:43;;;;;;;9.73;5.30;;;;;;;;;;6156027;23;20064;-84
2023/07/03 10:55:41;;;;;;;12.95;5.82;;;;;;;;;;6156805;23;20055;-85
2023/07/03 11:03:46;;;;;;;;;;;;;;;;;;;;;
2023/07/03 11:09:18;;;;;;;12.80;5.38;;;;;;;;;;6147435;23;20437;-86
2023/07/03 11:11:50;;;;;;;11.50;5.28;;;;;;;;;;6158043;23;20033;-86
2023/07/03 13:26:33;;;;;;;11.13;5.82;;;;;;;;;;6150919;23;20276;-78
2023/07/03 13:35:10;;;;;;;9.38;5.50;;;;;;;;;;6163249;23;20032;-78
2023/07/03 16:04:53;;;;;;;10.35;4.80;;;;;;;;;;6148018;22;20438;-85
2023/07/03 16:07:19;;;;;;;9.75;4.05;;;;;;;;;;6122370;23;20037;-88
2023/07/03 16:10:03;;;;;;;10.00;4.10;;;;;;;;;;6122675;23;20018;-82
2023/07/03 16:12:30;;;;;;;11.45;4.28;;;;;;;;;;6122655;23;20048;-86
2023/07/03 16:14:56;;;;;;;11.35;4.72;;;;;;;;;;6121588;23;20010;-88
2023/07/03 16:17:33;;;;;;;8.40;4.10;;;;;;;;;;6120650;23;20034;-90
2023/07/03 16:23:40;;;;;;;9.85;4.60;;;;;;;;;;6098816;23;20277;-87
2023/07/03 16:26:11;;;;;;;11.05;4.30;;;;;;;;;;6124682;23;20025;-90
2023/07/03 16:28:49;;;;;;;;;;;;;;;;;;6151246;23;20006;-89
2023/07/03 16:31:24;;;;;;;9.57;3.85;;;;;;;;;;6150876;23;19919;-91
2023/07/03 16:37:15;;;;;;;9.23;4.53;;;;;;;;;;6119075;23;20021;-91
2023/07/03 16:40:12;;;;;;;7.38;3.70;;;;;;;;;;6150769;23;20025;-89
2023/07/03 16:46:00;;;;;;;;;;;;;;;;;;;;;
2023/07/03 16:51:02;;;;;;;7.18;3.47;;;;;;;;;;6168668;23;20060;-82
2023/07/03 16:53:30;;;;;;;13.32;4.28;;;;;;;;;;6150466;23;20022;-82
2023/07/03 16:56:06;;;;;;;8.07;4.07;;;;;;;;;;6150574;23;20547;-82
2023/07/03 16:58:33;;;;;;;11.25;3.72;;;;;;;;;;6149623;23;20048;-84
2023/07/03 17:01:03;;;;;;;8.55;3.75;;;;;;;;;;6150018;23;20029;-86
2023/07/03 17:03:33;;;;;;;8.48;4.53;;;;;;;;;;6151684;23;20052;-87
2023/07/03 17:08:29;;;;;;;10.40;3.95;;;;;;;;;;6122323;23;20034;-85
2023/07/03 17:13:35;;;;;;;11.55;3.97;;;;;;;;;;6151690;23;20791;-86
2023/07/03 17:16:04;;;;;;;8.50;4.13;;;;;;;;;;6151577;23;20028;-87
2023/07/03 17:18:30;;;;;;;8.48;3.90;;;;;;;;;;6151455;23;20037;-86
2023/07/03 17:24:20;;;;;;;11.85;4.20;;;;;;;;;;6160191;23;20032;-83
2023/07/03 17:26:49;;;;;;;9.40;3.72;;;;;;;;;;6036538;23;20050;-85
2023/07/03 17:29:15;;;;;;;10.05;3.78;;;;;;;;;;6148758;23;20017;-88
2023/07/03 17:31:41;;;;;;;9.85;3.63;;;;;;;;;;6150311;23;20351;-86
2023/07/03 17:34:07;;;;;;;7.63;3.70;;;;;;;;;;6149530;23;20017;-87
2023/07/03 17:36:33;;;;;;;12.23;3.75;;;;;;;;;;6149013;23;20044;-81
2023/07/03 17:39:18;;;;;;;8.90;3.42;;;;;;;;;;6148894;23;20009;-87
2023/07/03 17:41:45;;;;;;;7.45;3.30;;;;;;;;;;6150140;23;20009;-83
2023/07/03 17:44:38;;;;;;;8.07;3.15;;;;;;;;;;6147611;23;20020;-82
2023/07/03 17:47:04;;;;;;;13.82;4.13;;;;;;;;;;6149676;23;20136;-86
2023/07/03 17:49:55;;;;;;;10.30;3.63;;;;;;;;;;6148968;23;20014;-80
2023/07/03 17:52:21;;;;;;;8.07;3.13;;;;;;;;;;6151800;23;20024;-81
2023/07/03 17:57:57;;;;;;;7.82;3.55;;;;;;;;;;6124994;23;20028;-83
2023/07/03 18:00:23;;;;;;;6.57;3.65;;;;;;;;;;6151499;23;20027;-83
2023/07/03 18:02:52;;;;;;;9.95;3.53;;;;;;;;;;6152086;23;20035;-84
2023/07/03 18:05:25;;;;;;;8.90;3.50;;;;;;;;;;6149755;23;20001;-82
2023/07/03 18:11:43;;;;;;;;;;;;;;;;;;;;;
2023/07/03 18:21:24;;;;;;;;;;;;;;;;;;;;;
2023/07/03 18:25:06;;;;;;;6.93;3.38;;;;;;;;;;6151322;23;20092;-81
2023/07/03 18:27:29;;;;;;;8.93;3.30;;;;;;;;;;6128825;23;20005;-80
2023/07/03 18:33:54;;;;;;;9.07;2.30;;;;;;;;;;6137574;23;20025;-81
2023/07/03 18:42:38;;;;;;;6.18;2.60;;;;;;;;;;6087151;23;20024;-81
2023/07/03 18:45:47;;;;;;;7.78;2.42;;;;;;;;;;6115355;23;20033;-81
2023/07/03 18:52:12;;;;;;;;;;;;;;;;;;;;;
2023/07/03 19:02:14;;;;;;;5.60;1.95;;;;;;;;;;6003882;23;20095;-80
2023/07/03 19:04:30;;;;;;;6.90;2.08;;;;;;;;;;5978464;23;20110;-80
2023/07/03 19:13:55;;;;;;;5.63;1.83;;;;;;;;;;6063616;23;20006;-81
2023/07/03 19:20:20;;;;;;;;;;;;;;;;;;;;;
